BA25 LEBL-LEPA
Flight info
| Callsign | BA25 |
|---|---|
| Flight time | 0h 30m |
| Altitude | 15000 |
| Route | LARPA N859 TOLSO |
| Aircraft | A20N/M-SDE2E3FGHIRWXY/LB1 |
Departure
| Time | 2026-05-05 17:14 |
|---|---|
| Airport | Josep Tarradellas Barcelona-El Prat Airport (LEBL) |
Arrival
| Time | 2026-05-05 17:44 |
|---|---|
| Airport | Palma de Mallorca Airport (LEPA) |
| Time | Latitude | Longitude | Altitude | Speed | Heading |
|---|---|---|---|---|---|
| 2026-05-05 16:56 | 41.30404 | 2.08304 | 17 ft | 0 kts | 274° |
| 2026-05-05 17:04 | 41.30404 | 2.08309 | 17 ft | 2 kts | 275° |
| 2026-05-05 17:05 | 41.30400 | 2.08328 | 20 ft | 2 kts | 293° |
| 2026-05-05 17:05 | 41.30392 | 2.08347 | 19 ft | 2 kts | 311° |
| 2026-05-05 17:05 | 41.30380 | 2.08361 | 18 ft | 2 kts | 326° |
| 2026-05-05 17:05 | 41.30365 | 2.08372 | 17 ft | 2 kts | 338° |
| 2026-05-05 17:06 | 41.30349 | 2.08378 | 19 ft | 2 kts | 347° |
| 2026-05-05 17:06 | 41.30333 | 2.08382 | 20 ft | 2 kts | 354° |
| 2026-05-05 17:06 | 41.30317 | 2.08383 | 21 ft | 2 kts | 0° |
| 2026-05-05 17:06 | 41.30300 | 2.08382 | 22 ft | 2 kts | 7° |
| 2026-05-05 17:07 | 41.30284 | 2.08378 | 22 ft | 2 kts | 16° |
| 2026-05-05 17:07 | 41.30275 | 2.08372 | 20 ft | 1 kts | 34° |
| 2026-05-05 17:07 | 41.30273 | 2.08371 | 20 ft | 0 kts | 41° |
| 2026-05-05 17:08 | 41.30275 | 2.08373 | 21 ft | 1 kts | 42° |
| 2026-05-05 17:08 | 41.30282 | 2.08388 | 23 ft | 4 kts | 60° |
| 2026-05-05 17:09 | 41.30285 | 2.08407 | 23 ft | 2 kts | 94° |
| 2026-05-05 17:09 | 41.30260 | 2.08453 | 22 ft | 11 kts | 148° |
| 2026-05-05 17:09 | 41.30167 | 2.08497 | 25 ft | 16 kts | 186° |
| 2026-05-05 17:09 | 41.30049 | 2.08505 | 26 ft | 20 kts | 192° |
| 2026-05-05 17:10 | 41.29915 | 2.08392 | 26 ft | 27 kts | 199° |
| 2026-05-05 17:10 | 41.29713 | 2.08462 | 20 ft | 36 kts | 155° |
| 2026-05-05 17:10 | 41.29466 | 2.08612 | 15 ft | 41 kts | 156° |
| 2026-05-05 17:10 | 41.29208 | 2.08763 | 19 ft | 40 kts | 152° |
| 2026-05-05 17:11 | 41.28990 | 2.08896 | 19 ft | 22 kts | 155° |
| 2026-05-05 17:11 | 41.28963 | 2.09031 | 22 ft | 16 kts | 65° |
| 2026-05-05 17:11 | 41.29016 | 2.09185 | 20 ft | 23 kts | 65° |
| 2026-05-05 17:11 | 41.29097 | 2.09419 | 24 ft | 33 kts | 64° |
| 2026-05-05 17:12 | 41.29203 | 2.09722 | 21 ft | 37 kts | 64° |
| 2026-05-05 17:12 | 41.29257 | 2.09961 | 19 ft | 15 kts | 133° |
| 2026-05-05 17:12 | 41.29184 | 2.09955 | 19 ft | 10 kts | 216° |
| 2026-05-05 17:12 | 41.29136 | 2.09908 | 21 ft | 8 kts | 217° |
| 2026-05-05 17:13 | 41.29043 | 2.09794 | 20 ft | 24 kts | 244° |
| 2026-05-05 17:13 | 41.28922 | 2.09444 | 17 ft | 75 kts | 245° |
| 2026-05-05 17:13 | 41.28593 | 2.08479 | 31 ft | 153 kts | 246° |
| 2026-05-05 17:13 | 41.28095 | 2.07028 | 369 ft | 190 kts | 244° |
| 2026-05-05 17:14 | 41.27476 | 2.05493 | 1218 ft | 190 kts | 226° |
| 2026-05-05 17:14 | 41.26322 | 2.04717 | 2103 ft | 197 kts | 189° |
| 2026-05-05 17:14 | 41.24896 | 2.04611 | 2772 ft | 212 kts | 184° |
| 2026-05-05 17:14 | 41.23354 | 2.04323 | 3260 ft | 236 kts | 193° |
| 2026-05-05 17:15 | 41.21712 | 2.03777 | 3908 ft | 249 kts | 196° |
| 2026-05-05 17:15 | 41.20026 | 2.03161 | 4764 ft | 254 kts | 197° |
| 2026-05-05 17:15 | 41.18312 | 2.02528 | 5687 ft | 257 kts | 197° |
| 2026-05-05 17:15 | 41.16580 | 2.01894 | 6631 ft | 260 kts | 198° |
| 2026-05-05 17:16 | 41.14828 | 2.01257 | 7568 ft | 262 kts | 198° |
| 2026-05-05 17:16 | 41.13068 | 2.00620 | 8510 ft | 264 kts | 198° |
| 2026-05-05 17:16 | 41.11309 | 1.99985 | 9423 ft | 266 kts | 198° |
| 2026-05-05 17:16 | 41.09508 | 1.99342 | 10237 ft | 272 kts | 197° |
| 2026-05-05 17:17 | 41.07553 | 1.99034 | 10608 ft | 299 kts | 179° |
| 2026-05-05 17:17 | 41.05468 | 1.99828 | 10925 ft | 329 kts | 157° |
| 2026-05-05 17:17 | 41.03449 | 2.01418 | 11539 ft | 343 kts | 151° |
| 2026-05-05 17:17 | 41.01448 | 2.03187 | 12328 ft | 348 kts | 150° |
| 2026-05-05 17:18 | 40.99420 | 2.04979 | 13136 ft | 352 kts | 151° |
| 2026-05-05 17:18 | 40.97367 | 2.06753 | 13909 ft | 355 kts | 152° |
| 2026-05-05 17:18 | 40.95300 | 2.08503 | 14501 ft | 358 kts | 152° |
| 2026-05-05 17:18 | 40.93231 | 2.10231 | 14810 ft | 360 kts | 153° |
| 2026-05-05 17:19 | 40.91072 | 2.12013 | 14885 ft | 369 kts | 153° |
| 2026-05-05 17:19 | 40.88887 | 2.13809 | 14889 ft | 372 kts | 153° |
| 2026-05-05 17:19 | 40.86686 | 2.15615 | 14884 ft | 373 kts | 153° |
| 2026-05-05 17:19 | 40.84481 | 2.17421 | 14883 ft | 373 kts | 153° |
| 2026-05-05 17:20 | 40.82279 | 2.19221 | 14883 ft | 373 kts | 153° |
| 2026-05-05 17:20 | 40.80069 | 2.21024 | 14887 ft | 373 kts | 153° |
| 2026-05-05 17:20 | 40.77863 | 2.22820 | 14886 ft | 373 kts | 153° |
| 2026-05-05 17:20 | 40.75674 | 2.24600 | 14882 ft | 373 kts | 153° |
| 2026-05-05 17:21 | 40.73470 | 2.26394 | 14670 ft | 364 kts | 153° |
| 2026-05-05 17:21 | 40.71353 | 2.28112 | 14441 ft | 359 kts | 153° |
| 2026-05-05 17:21 | 40.69227 | 2.29831 | 14199 ft | 358 kts | 153° |
| 2026-05-05 17:22 | 40.64995 | 2.33249 | 13721 ft | 356 kts | 153° |
| 2026-05-05 17:22 | 40.62844 | 2.34809 | 13448 ft | 350 kts | 162° |
| 2026-05-05 17:22 | 40.60546 | 2.35772 | 13198 ft | 345 kts | 170° |
| 2026-05-05 17:22 | 40.58228 | 2.36496 | 12953 ft | 343 kts | 171° |
| 2026-05-05 17:23 | 40.55893 | 2.37201 | 12885 ft | 343 kts | 171° |
| 2026-05-05 17:23 | 40.53578 | 2.37927 | 12888 ft | 343 kts | 171° |
| 2026-05-05 17:23 | 40.51258 | 2.38683 | 12882 ft | 343 kts | 170° |
| 2026-05-05 17:23 | 40.48992 | 2.39442 | 12882 ft | 343 kts | 170° |
| 2026-05-05 17:24 | 40.46693 | 2.40227 | 12883 ft | 340 kts | 170° |
| 2026-05-05 17:24 | 40.44394 | 2.41017 | 12819 ft | 343 kts | 169° |
| 2026-05-05 17:24 | 40.42101 | 2.41809 | 12567 ft | 343 kts | 169° |
| 2026-05-05 17:24 | 40.39783 | 2.42611 | 12310 ft | 342 kts | 169° |
| 2026-05-05 17:25 | 40.37492 | 2.43405 | 12054 ft | 342 kts | 169° |
| 2026-05-05 17:25 | 40.35967 | 2.43958 | 11885 ft | 342 kts | 166° |
| 2026-05-05 17:25 | 40.33226 | 2.46156 | 11550 ft | 351 kts | 144° |
| 2026-05-05 17:25 | 40.31437 | 2.48356 | 11303 ft | 354 kts | 139° |
| 2026-05-05 17:26 | 40.29765 | 2.50719 | 11054 ft | 354 kts | 136° |
| 2026-05-05 17:26 | 40.28170 | 2.53142 | 10814 ft | 354 kts | 134° |
| 2026-05-05 17:26 | 40.26621 | 2.55590 | 10570 ft | 354 kts | 133° |
| 2026-05-05 17:26 | 40.25073 | 2.58087 | 10333 ft | 353 kts | 133° |
| 2026-05-05 17:27 | 40.23541 | 2.60590 | 10091 ft | 352 kts | 133° |
| 2026-05-05 17:27 | 40.22022 | 2.63088 | 9855 ft | 351 kts | 133° |
| 2026-05-05 17:27 | 40.20691 | 2.65288 | 9627 ft | 340 kts | 132° |
| 2026-05-05 17:27 | 40.19253 | 2.67675 | 9372 ft | 328 kts | 132° |
| 2026-05-05 17:28 | 40.17873 | 2.69970 | 9117 ft | 316 kts | 133° |
| 2026-05-05 17:28 | 40.16533 | 2.72197 | 8862 ft | 306 kts | 133° |
| 2026-05-05 17:28 | 40.15236 | 2.74351 | 8607 ft | 297 kts | 133° |
| 2026-05-05 17:28 | 40.13988 | 2.76421 | 8363 ft | 293 kts | 133° |
| 2026-05-05 17:29 | 40.12725 | 2.78509 | 8113 ft | 292 kts | 133° |
| 2026-05-05 17:29 | 40.11466 | 2.80587 | 7917 ft | 291 kts | 133° |
| 2026-05-05 17:29 | 40.10209 | 2.82661 | 7883 ft | 291 kts | 133° |
| 2026-05-05 17:29 | 40.08953 | 2.84733 | 7884 ft | 291 kts | 133° |
| 2026-05-05 17:30 | 40.07696 | 2.86807 | 7677 ft | 291 kts | 132° |
| 2026-05-05 17:30 | 40.06446 | 2.88866 | 7460 ft | 289 kts | 132° |
| 2026-05-05 17:30 | 40.05196 | 2.90926 | 7338 ft | 289 kts | 132° |
| 2026-05-05 17:30 | 40.03949 | 2.92979 | 7215 ft | 288 kts | 132° |
| 2026-05-05 17:31 | 40.02705 | 2.95025 | 7090 ft | 288 kts | 132° |
| 2026-05-05 17:31 | 40.01461 | 2.97070 | 6926 ft | 287 kts | 132° |
| 2026-05-05 17:31 | 40.00224 | 2.99103 | 6891 ft | 286 kts | 132° |
| 2026-05-05 17:31 | 39.98998 | 3.01117 | 6885 ft | 287 kts | 132° |
| 2026-05-05 17:32 | 39.97763 | 3.03144 | 6876 ft | 287 kts | 132° |
| 2026-05-05 17:32 | 39.96521 | 3.05183 | 6887 ft | 287 kts | 132° |
| 2026-05-05 17:32 | 39.95283 | 3.07216 | 6882 ft | 287 kts | 132° |
| 2026-05-05 17:32 | 39.94043 | 3.09255 | 6882 ft | 287 kts | 132° |
| 2026-05-05 17:33 | 39.92808 | 3.11286 | 6898 ft | 286 kts | 132° |
| 2026-05-05 17:33 | 39.91574 | 3.13322 | 6933 ft | 286 kts | 132° |
| 2026-05-05 17:33 | 39.90339 | 3.15352 | 6568 ft | 286 kts | 132° |
| 2026-05-05 17:33 | 39.89104 | 3.17369 | 6168 ft | 284 kts | 132° |
| 2026-05-05 17:34 | 39.87889 | 3.19346 | 5740 ft | 282 kts | 132° |
| 2026-05-05 17:34 | 39.86660 | 3.21331 | 5320 ft | 281 kts | 134° |
| 2026-05-05 17:34 | 39.85172 | 3.22890 | 4877 ft | 272 kts | 160° |
| 2026-05-05 17:34 | 39.83370 | 3.23376 | 4428 ft | 262 kts | 187° |
| 2026-05-05 17:35 | 39.81675 | 3.22711 | 4069 ft | 252 kts | 213° |
| 2026-05-05 17:35 | 39.80252 | 3.21437 | 3971 ft | 246 kts | 213° |
| 2026-05-05 17:35 | 39.78749 | 3.20408 | 3973 ft | 243 kts | 209° |
| 2026-05-05 17:35 | 39.77245 | 3.19408 | 3971 ft | 243 kts | 211° |
| 2026-05-05 17:36 | 39.75806 | 3.18269 | 3973 ft | 242 kts | 220° |
| 2026-05-05 17:36 | 39.74623 | 3.16739 | 3968 ft | 239 kts | 233° |
| 2026-05-05 17:36 | 39.73765 | 3.15079 | 3961 ft | 230 kts | 239° |
| 2026-05-05 17:37 | 39.73500 | 3.14518 | 3968 ft | 227 kts | 239° |
| 2026-05-05 17:37 | 39.73036 | 3.13531 | 3970 ft | 224 kts | 240° |
| 2026-05-05 17:37 | 39.71955 | 3.11227 | 3974 ft | 222 kts | 240° |
| 2026-05-05 17:37 | 39.71154 | 3.09499 | 3976 ft | 223 kts | 240° |
| 2026-05-05 17:38 | 39.70378 | 3.07756 | 3980 ft | 223 kts | 241° |
| 2026-05-05 17:38 | 39.69796 | 3.06458 | 4032 ft | 219 kts | 240° |
| 2026-05-05 17:38 | 39.69196 | 3.05176 | 4064 ft | 217 kts | 239° |
| 2026-05-05 17:38 | 39.68408 | 3.03523 | 4067 ft | 217 kts | 239° |
| 2026-05-05 17:39 | 39.67613 | 3.01844 | 4077 ft | 218 kts | 240° |
| 2026-05-05 17:39 | 39.66838 | 3.00190 | 4075 ft | 213 kts | 240° |
| 2026-05-05 17:39 | 39.66100 | 2.98617 | 3998 ft | 196 kts | 240° |
| 2026-05-05 17:39 | 39.65415 | 2.97157 | 3790 ft | 183 kts | 240° |
| 2026-05-05 17:40 | 39.64773 | 2.95788 | 3510 ft | 175 kts | 240° |
| 2026-05-05 17:40 | 39.64139 | 2.94437 | 3254 ft | 174 kts | 240° |
| 2026-05-05 17:40 | 39.63505 | 2.93090 | 3014 ft | 175 kts | 240° |
| 2026-05-05 17:40 | 39.62873 | 2.91744 | 2773 ft | 175 kts | 239° |
| 2026-05-05 17:41 | 39.62239 | 2.90395 | 2538 ft | 175 kts | 240° |
| 2026-05-05 17:41 | 39.61609 | 2.89056 | 2321 ft | 174 kts | 239° |
| 2026-05-05 17:41 | 39.60981 | 2.87725 | 2087 ft | 172 kts | 239° |
| 2026-05-05 17:41 | 39.60359 | 2.86401 | 1853 ft | 173 kts | 239° |
| 2026-05-05 17:42 | 39.59744 | 2.85093 | 1640 ft | 169 kts | 238° |
| 2026-05-05 17:42 | 39.59146 | 2.83819 | 1416 ft | 163 kts | 238° |
| 2026-05-05 17:42 | 39.58752 | 2.82983 | 1266 ft | 157 kts | 238° |
| 2026-05-05 17:42 | 39.58202 | 2.81813 | 1077 ft | 150 kts | 237° |
| 2026-05-05 17:43 | 39.57488 | 2.80298 | 802 ft | 153 kts | 236° |
| 2026-05-05 17:43 | 39.57093 | 2.79458 | 647 ft | 155 kts | 237° |
| 2026-05-05 17:43 | 39.56631 | 2.78485 | 493 ft | 155 kts | 237° |
| 2026-05-05 17:43 | 39.56103 | 2.77371 | 322 ft | 153 kts | 239° |
| 2026-05-05 17:44 | 39.55565 | 2.76211 | 150 ft | 149 kts | 238° |
| 2026-05-05 17:44 | 39.55073 | 2.75170 | 43 ft | 136 kts | 238° |
| 2026-05-05 17:44 | 39.54782 | 2.74562 | 40 ft | 110 kts | 238° |
| 2026-05-05 17:44 | 39.54560 | 2.74034 | 41 ft | 37 kts | 258° |
| 2026-05-05 17:45 | 39.54550 | 2.73854 | 41 ft | 22 kts | 269° |
| 2026-05-05 17:45 | 39.54550 | 2.73782 | 41 ft | 0 kts | 270° |
| 2026-05-05 17:45 | 39.54551 | 2.73780 | 41 ft | 0 kts | 270° |
| 2026-05-05 17:45 | 39.54551 | 2.73774 | 41 ft | 1 kts | 270° |
| 2026-05-05 17:46 | 39.54551 | 2.73766 | 41 ft | 1 kts | 270° |
| 2026-05-05 17:46 | 39.54551 | 2.73759 | 41 ft | 1 kts | 270° |
| 2026-05-05 17:46 | 39.54551 | 2.73741 | 41 ft | 6 kts | 275° |
| 2026-05-05 17:46 | 39.54590 | 2.73645 | 40 ft | 15 kts | 319° |
| 2026-05-05 17:47 | 39.54643 | 2.73544 | 41 ft | 13 kts | 321° |
| 2026-05-05 17:47 | 39.54700 | 2.73494 | 40 ft | 8 kts | 327° |
| 2026-05-05 17:47 | 39.54749 | 2.73455 | 41 ft | 8 kts | 329° |
| 2026-05-05 17:47 | 39.54762 | 2.73412 | 41 ft | 4 kts | 244° |
| 2026-05-05 17:48 | 39.54747 | 2.73379 | 39 ft | 4 kts | 238° |
| 2026-05-05 17:48 | 39.54738 | 2.73362 | 41 ft | 1 kts | 238° |
| 2026-05-05 17:48 | 39.54737 | 2.73358 | 41 ft | 0 kts | 238° |